sensor_id;sensor_type;location;lat;lon;timestamp;temperature;humidity
75517;DHT22;64097;52.548;13.406;2023-11-19T06:04:26;11.40;66.60
75517;DHT22;64097;52.548;13.406;2023-11-19T06:06:52;11.40;66.60
75517;DHT22;64097;52.548;13.406;2023-11-19T06:09:19;11.40;66.80
75517;DHT22;64097;52.548;13.406;2023-11-19T06:11:45;11.40;66.80
75517;DHT22;64097;52.548;13.406;2023-11-19T06:14:12;11.40;66.80
75517;DHT22;64097;52.548;13.406;2023-11-19T06:16:38;11.40;66.80
75517;DHT22;64097;52.548;13.406;2023-11-19T06:19:05;11.50;67.10
75517;DHT22;64097;52.548;13.406;2023-11-19T06:21:31;11.50;67.00
75517;DHT22;64097;52.548;13.406;2023-11-19T06:23:56;11.50;67.10
75517;DHT22;64097;52.548;13.406;2023-11-19T06:26:23;11.50;67.10
75517;DHT22;64097;52.548;13.406;2023-11-19T06:28:49;11.50;66.90
75517;DHT22;64097;52.548;13.406;2023-11-19T06:31:15;11.50;66.90
75517;DHT22;64097;52.548;13.406;2023-11-19T06:33:42;11.50;66.90
75517;DHT22;64097;52.548;13.406;2023-11-19T06:36:08;11.50;66.90
75517;DHT22;64097;52.548;13.406;2023-11-19T06:38:34;11.50;67.10
75517;DHT22;64097;52.548;13.406;2023-11-19T06:41:00;11.50;66.90
75517;DHT22;64097;52.548;13.406;2023-11-19T06:43:27;11.60;67.00
75517;DHT22;64097;52.548;13.406;2023-11-19T06:45:53;11.60;67.30
75517;DHT22;64097;52.548;13.406;2023-11-19T06:48:19;11.60;67.30
75517;DHT22;64097;52.548;13.406;2023-11-19T06:50:46;11.60;67.10
75517;DHT22;64097;52.548;13.406;2023-11-19T06:53:12;11.60;67.10
75517;DHT22;64097;52.548;13.406;2023-11-19T06:55:38;11.60;67.20
75517;DHT22;64097;52.548;13.406;2023-11-19T06:58:03;11.60;67.30
75517;DHT22;64097;52.548;13.406;2023-11-19T07:00:29;11.60;67.30
75517;DHT22;64097;52.548;13.406;2023-11-19T07:02:59;11.60;67.40
75517;DHT22;64097;52.548;13.406;2023-11-19T07:05:25;11.60;67.60
75517;DHT22;64097;52.548;13.406;2023-11-19T07:07:51;11.60;67.50
75517;DHT22;64097;52.548;13.406;2023-11-19T07:10:16;11.60;67.60
75517;DHT22;64097;52.548;13.406;2023-11-19T07:12:42;11.60;67.60
75517;DHT22;64097;52.548;13.406;2023-11-19T07:15:08;11.60;68.90
75517;DHT22;64097;52.548;13.406;2023-11-19T07:17:34;11.60;69.70
75517;DHT22;64097;52.548;13.406;2023-11-19T07:20:00;11.60;69.10
75517;DHT22;64097;52.548;13.406;2023-11-19T07:22:26;11.60;68.80
75517;DHT22;64097;52.548;13.406;2023-11-19T07:24:52;11.60;68.30
75517;DHT22;64097;52.548;13.406;2023-11-19T07:27:19;11.70;68.40
75517;DHT22;64097;52.548;13.406;2023-11-19T07:29:44;11.70;68.40
75517;DHT22;64097;52.548;13.406;2023-11-19T07:32:11;11.70;68.40
75517;DHT22;64097;52.548;13.406;2023-11-19T07:34:36;11.70;68.40
75517;DHT22;64097;52.548;13.406;2023-11-19T07:37:02;11.70;68.20
75517;DHT22;64097;52.548;13.406;2023-11-19T07:39:31;11.80;68.20
75517;DHT22;64097;52.548;13.406;2023-11-19T07:41:57;11.80;68.10
75517;DHT22;64097;52.548;13.406;2023-11-19T07:44:22;11.80;68.20
75517;DHT22;64097;52.548;13.406;2023-11-19T07:46:48;11.80;68.10
75517;DHT22;64097;52.548;13.406;2023-11-19T07:49:14;11.80;68.10
75517;DHT22;64097;52.548;13.406;2023-11-19T07:51:40;11.80;68.10
75517;DHT22;64097;52.548;13.406;2023-11-19T07:54:06;11.80;68.10
75517;DHT22;64097;52.548;13.406;2023-11-19T07:56:34;11.90;68.30
75517;DHT22;64097;52.548;13.406;2023-11-19T07:59:01;11.90;68.30
75517;DHT22;64097;52.548;13.406;2023-11-19T08:01:27;11.90;68.20
75517;DHT22;64097;52.548;13.406;2023-11-19T08:03:53;11.90;68.30
75517;DHT22;64097;52.548;13.406;2023-11-19T08:06:19;11.90;68.20
75517;DHT22;64097;52.548;13.406;2023-11-19T08:08:45;11.90;68.30
75517;DHT22;64097;52.548;13.406;2023-11-19T08:11:10;12.00;68.50
75517;DHT22;64097;52.548;13.406;2023-11-19T08:13:36;12.00;68.50
75517;DHT22;64097;52.548;13.406;2023-11-19T08:16:02;12.00;68.70
75517;DHT22;64097;52.548;13.406;2023-11-19T08:18:27;12.10;68.60
75517;DHT22;64097;52.548;13.406;2023-11-19T08:20:53;12.00;68.70
75517;DHT22;64097;52.548;13.406;2023-11-19T08:23:19;12.10;68.50
75517;DHT22;64097;52.548;13.406;2023-11-19T08:25:46;12.10;68.60
75517;DHT22;64097;52.548;13.406;2023-11-19T08:28:12;12.20;68.70
75517;DHT22;64097;52.548;13.406;2023-11-19T08:30:38;12.20;68.70
75517;DHT22;64097;52.548;13.406;2023-11-19T08:33:04;12.20;68.70
75517;DHT22;64097;52.548;13.406;2023-11-19T08:35:31;12.30;68.70
75517;DHT22;64097;52.548;13.406;2023-11-19T08:37:57;12.30;68.70
75517;DHT22;64097;52.548;13.406;2023-11-19T08:40:24;12.30;68.70
75517;DHT22;64097;52.548;13.406;2023-11-19T08:42:51;12.30;68.80
75517;DHT22;64097;52.548;13.406;2023-11-19T08:45:17;12.30;68.90
75517;DHT22;64097;52.548;13.406;2023-11-19T08:47:43;12.40;68.90
75517;DHT22;64097;52.548;13.406;2023-11-19T08:50:11;12.40;69.00
75517;DHT22;64097;52.548;13.406;2023-11-19T08:52:37;12.50;69.00
75517;DHT22;64097;52.548;13.406;2023-11-19T08:55:03;12.50;69.20
75517;DHT22;64097;52.548;13.406;2023-11-19T08:57:31;12.50;69.20
75517;DHT22;64097;52.548;13.406;2023-11-19T08:59:58;12.60;69.30
75517;DHT22;64097;52.548;13.406;2023-11-19T09:02:24;12.60;69.10
75517;DHT22;64097;52.548;13.406;2023-11-19T09:04:50;12.70;69.10
75517;DHT22;64097;52.548;13.406;2023-11-19T09:07:16;12.70;69.00
75517;DHT22;64097;52.548;13.406;2023-11-19T09:09:41;12.80;69.10
75517;DHT22;64097;52.548;13.406;2023-11-19T09:12:07;12.80;69.10
75517;DHT22;64097;52.548;13.406;2023-11-19T09:14:33;12.80;69.00
75517;DHT22;64097;52.548;13.406;2023-11-19T09:16:59;12.80;69.00
75517;DHT22;64097;52.548;13.406;2023-11-19T09:19:25;12.90;69.10
75517;DHT22;64097;52.548;13.406;2023-11-19T09:21:52;12.90;69.20
75517;DHT22;64097;52.548;13.406;2023-11-19T09:24:18;12.90;69.40
75517;DHT22;64097;52.548;13.406;2023-11-19T09:26:44;13.00;69.40
75517;DHT22;64097;52.548;13.406;2023-11-19T09:29:10;13.00;69.20
75517;DHT22;64097;52.548;13.406;2023-11-19T09:31:37;13.00;69.20
75517;DHT22;64097;52.548;13.406;2023-11-19T09:34:03;13.10;69.20
75517;DHT22;64097;52.548;13.406;2023-11-19T09:36:29;13.10;69.20
75517;DHT22;64097;52.548;13.406;2023-11-19T09:38:54;13.20;69.20
75517;DHT22;64097;52.548;13.406;2023-11-19T09:41:20;13.20;69.70
75517;DHT22;64097;52.548;13.406;2023-11-19T09:43:46;13.30;69.60
75517;DHT22;64097;52.548;13.406;2023-11-19T09:46:15;13.30;69.60
75517;DHT22;64097;52.548;13.406;2023-11-19T09:48:42;13.40;69.90
75517;DHT22;64097;52.548;13.406;2023-11-19T09:51:11;13.40;69.90
75517;DHT22;64097;52.548;13.406;2023-11-19T09:53:37;13.50;70.00
75517;DHT22;64097;52.548;13.406;2023-11-19T09:56:05;13.50;70.10
75517;DHT22;64097;52.548;13.406;2023-11-19T09:58:33;13.60;70.30
75517;DHT22;64097;52.548;13.406;2023-11-19T10:00:59;13.70;70.10
75517;DHT22;64097;52.548;13.406;2023-11-19T10:03:35;13.80;70.10
75517;DHT22;64097;52.548;13.406;2023-11-19T10:06:04;13.80;69.90
75517;DHT22;64097;52.548;13.406;2023-11-19T10:08:30;13.90;70.00
75517;DHT22;64097;52.548;13.406;2023-11-19T10:10:55;14.00;70.10
75517;DHT22;64097;52.548;13.406;2023-11-19T10:13:26;14.00;70.00
75517;DHT22;64097;52.548;13.406;2023-11-19T10:15:53;14.00;70.00
75517;DHT22;64097;52.548;13.406;2023-11-19T10:18:18;14.10;70.00
75517;DHT22;64097;52.548;13.406;2023-11-19T10:20:48;14.10;69.90
75517;DHT22;64097;52.548;13.406;2023-11-19T10:23:15;14.20;69.80
75517;DHT22;64097;52.548;13.406;2023-11-19T10:25:40;14.20;69.70
75517;DHT22;64097;52.548;13.406;2023-11-19T10:28:06;14.20;70.20
75517;DHT22;64097;52.548;13.406;2023-11-19T10:30:32;14.20;70.00
75517;DHT22;64097;52.548;13.406;2023-11-19T10:35:33;14.30;70.00
75517;DHT22;64097;52.548;13.406;2023-11-19T10:38:02;14.30;70.20
75517;DHT22;64097;52.548;13.406;2023-11-19T10:40:39;14.40;70.40
75517;DHT22;64097;52.548;13.406;2023-11-19T10:43:08;14.40;70.00
75517;DHT22;64097;52.548;13.406;2023-11-19T10:45:35;14.40;70.10
75517;DHT22;64097;52.548;13.406;2023-11-19T10:48:02;14.50;70.40
75517;DHT22;64097;52.548;13.406;2023-11-19T10:50:34;14.50;70.40
75517;DHT22;64097;52.548;13.406;2023-11-19T10:53:01;14.60;70.60
75517;DHT22;64097;52.548;13.406;2023-11-19T10:55:30;14.60;70.40
75517;DHT22;64097;52.548;13.406;2023-11-19T10:58:00;14.70;70.40
75517;DHT22;64097;52.548;13.406;2023-11-19T11:00:29;14.70;70.40
75517;DHT22;64097;52.548;13.406;2023-11-19T11:03:01;14.80;70.90
75517;DHT22;64097;52.548;13.406;2023-11-19T11:05:31;14.80;71.00
75517;DHT22;64097;52.548;13.406;2023-11-19T11:07:58;14.80;70.60
75517;DHT22;64097;52.548;13.406;2023-11-19T11:10:26;14.80;70.70
75517;DHT22;64097;52.548;13.406;2023-11-19T11:12:52;14.90;70.90
75517;DHT22;64097;52.548;13.406;2023-11-19T11:15:27;14.90;70.80
75517;DHT22;64097;52.548;13.406;2023-11-19T11:18:01;14.90;70.50
75517;DHT22;64097;52.548;13.406;2023-11-19T11:20:29;15.00;70.80
75517;DHT22;64097;52.548;13.406;2023-11-19T11:29:02;15.20;70.80
75517;DHT22;64097;52.548;13.406;2023-11-19T11:39:24;15.40;70.30
75517;DHT22;64097;52.548;13.406;2023-11-19T11:50:16;15.50;70.20
75517;DHT22;64097;52.548;13.406;2023-11-19T11:55:39;15.60;70.40
75517;DHT22;64097;52.548;13.406;2023-11-19T11:58:21;15.60;70.40
75517;DHT22;64097;52.548;13.406;2023-11-19T12:00:48;15.70;70.30
75517;DHT22;64097;52.548;13.406;2023-11-19T12:03:14;15.80;70.20
75517;DHT22;64097;52.548;13.406;2023-11-19T12:05:44;15.80;70.10
75517;DHT22;64097;52.548;13.406;2023-11-19T12:08:11;15.90;70.10
75517;DHT22;64097;52.548;13.406;2023-11-19T12:10:46;15.90;69.90
75517;DHT22;64097;52.548;13.406;2023-11-19T12:13:13;15.90;69.80
75517;DHT22;64097;52.548;13.406;2023-11-19T12:18:32;16.00;69.50
75517;DHT22;64097;52.548;13.406;2023-11-19T12:21:01;16.00;69.40
75517;DHT22;64097;52.548;13.406;2023-11-19T12:23:30;16.00;69.40
75517;DHT22;64097;52.548;13.406;2023-11-19T12:25:57;16.10;69.40
75517;DHT22;64097;52.548;13.406;2023-11-19T12:28:24;16.10;69.30
75517;DHT22;64097;52.548;13.406;2023-11-19T12:30:52;16.10;69.10
75517;DHT22;64097;52.548;13.406;2023-11-19T12:33:19;16.10;69.20
75517;DHT22;64097;52.548;13.406;2023-11-19T12:35:46;16.10;69.20
75517;DHT22;64097;52.548;13.406;2023-11-19T12:38:19;16.20;69.00
75517;DHT22;64097;52.548;13.406;2023-11-19T12:41:03;16.20;69.00
75517;DHT22;64097;52.548;13.406;2023-11-19T12:43:29;16.20;69.00
75517;DHT22;64097;52.548;13.406;2023-11-19T12:45:55;16.20;68.80
75517;DHT22;64097;52.548;13.406;2023-11-19T12:48:20;16.20;68.70
75517;DHT22;64097;52.548;13.406;2023-11-19T12:50:59;16.20;68.80
75517;DHT22;64097;52.548;13.406;2023-11-19T12:53:26;16.20;68.80
75517;DHT22;64097;52.548;13.406;2023-11-19T12:55:53;16.20;68.90
75517;DHT22;64097;52.548;13.406;2023-11-19T12:58:31;16.20;68.90
75517;DHT22;64097;52.548;13.406;2023-11-19T13:01:03;16.20;69.20
75517;DHT22;64097;52.548;13.406;2023-11-19T13:03:35;16.10;69.10
75517;DHT22;64097;52.548;13.406;2023-11-19T13:06:07;16.20;69.20
75517;DHT22;64097;52.548;13.406;2023-11-19T13:08:40;16.20;69.10
75517;DHT22;64097;52.548;13.406;2023-11-19T13:11:07;16.20;68.80
75517;DHT22;64097;52.548;13.406;2023-11-19T13:13:58;16.20;68.80
75517;DHT22;64097;52.548;13.406;2023-11-19T13:16:25;16.10;68.20
75517;DHT22;64097;52.548;13.406;2023-11-19T13:18:51;16.10;68.20
75517;DHT22;64097;52.548;13.406;2023-11-19T13:21:17;16.00;68.20
75517;DHT22;64097;52.548;13.406;2023-11-19T13:23:44;16.00;68.30
75517;DHT22;64097;52.548;13.406;2023-11-19T13:26:10;16.00;68.40
75517;DHT22;64097;52.548;13.406;2023-11-19T13:28:37;16.00;68.30
75517;DHT22;64097;52.548;13.406;2023-11-19T13:31:02;16.00;68.10
75517;DHT22;64097;52.548;13.406;2023-11-19T13:33:28;16.00;68.00
75517;DHT22;64097;52.548;13.406;2023-11-19T13:35:55;15.90;68.00
75517;DHT22;64097;52.548;13.406;2023-11-19T13:38:21;15.90;67.90
75517;DHT22;64097;52.548;13.406;2023-11-19T13:40:48;15.90;68.00
75517;DHT22;64097;52.548;13.406;2023-11-19T13:43:14;15.90;68.30
75517;DHT22;64097;52.548;13.406;2023-11-19T13:45:40;15.90;68.50
75517;DHT22;64097;52.548;13.406;2023-11-19T13:48:06;16.00;68.50
75517;DHT22;64097;52.548;13.406;2023-11-19T13:50:31;16.00;68.40
75517;DHT22;64097;52.548;13.406;2023-11-19T13:52:59;16.00;68.30
75517;DHT22;64097;52.548;13.406;2023-11-19T13:55:25;16.00;68.40
75517;DHT22;64097;52.548;13.406;2023-11-19T13:57:51;16.00;68.50
